createdAt,value
2018-05-01T00:00:38.268Z,99456.25
2018-05-01T00:03:09.503Z,99463.56
2018-05-01T00:05:40.276Z,99462.53
2018-05-01T00:08:11.233Z,99460.27
2018-05-01T00:10:42.200Z,99456.17
2018-05-01T00:13:13.314Z,99454.45
2018-05-01T00:15:44.171Z,99462.38
2018-05-01T00:18:15.721Z,99457.74
2018-05-01T00:20:46.424Z,99456.33
2018-05-01T00:23:17.240Z,99458.08
2018-05-01T00:25:47.878Z,99466.10
2018-05-01T00:28:18.844Z,99466.21
2018-05-01T00:30:49.538Z,99469.19
2018-05-01T00:33:20.266Z,99471.22
2018-05-01T00:35:51.192Z,99468.34
2018-05-01T00:38:21.812Z,99469.07
2018-05-01T00:40:52.574Z,99470.33
2018-05-01T00:43:23.647Z,99467.45
2018-05-01T00:45:54.329Z,99479.06
2018-05-01T00:48:25.242Z,99481.95
2018-05-01T00:50:55.794Z,99487.20
2018-05-01T00:53:26.557Z,99482.95
2018-05-01T00:55:57.263Z,99480.08
2018-05-01T00:58:28.160Z,99477.41
2018-05-01T01:00:59.175Z,99475.77
2018-05-01T01:03:30.155Z,99471.23
2018-05-01T01:06:00.721Z,99453.46
2018-05-01T01:08:31.467Z,99444.30
2018-05-01T01:11:02.243Z,99436.80
2018-05-01T01:13:33.210Z,99434.73
2018-05-01T01:16:04.487Z,99453.45
2018-05-01T01:18:35.822Z,99461.27
2018-05-01T01:21:06.442Z,99471.95
2018-05-01T01:23:37.244Z,99471.72
2018-05-01T01:26:08.186Z,99478.52
2018-05-01T01:28:39.261Z,99474.92
2018-05-01T01:31:10.162Z,99471.23
2018-05-01T01:33:41.303Z,99469.36
2018-05-01T01:36:10.774Z,99468.97
2018-05-01T01:38:41.102Z,99471.64
2018-05-01T01:41:10.475Z,99473.78
2018-05-01T01:43:39.797Z,99470.31
2018-05-01T01:46:09.298Z,99467.33
2018-05-01T01:48:36.996Z,99479.36
2018-05-01T01:51:04.593Z,99481.41
2018-05-01T01:53:32.499Z,99480.26
2018-05-01T01:56:00.501Z,99474.72
2018-05-01T01:58:29.008Z,99488.57
2018-05-01T02:00:56.632Z,99498.56
2018-05-01T02:03:24.614Z,99508.52
2018-05-01T02:05:52.551Z,99509.11
2018-05-01T02:08:20.436Z,99510.44
2018-05-01T02:10:48.363Z,99509.00
2018-05-01T02:13:16.004Z,99509.52
2018-05-01T02:15:43.616Z,99505.48
2018-05-01T02:18:11.563Z,99503.53
2018-05-01T02:20:39.829Z,99499.40
2018-05-01T02:23:07.482Z,99500.75
2018-05-01T02:25:35.484Z,99501.05
2018-05-01T02:28:03.382Z,99498.31
2018-05-01T02:30:31.004Z,99493.91
2018-05-01T02:32:58.956Z,99494.52
2018-05-01T02:35:26.567Z,99491.95
2018-05-01T02:37:54.500Z,99490.80
2018-05-01T02:40:22.475Z,99483.81
2018-05-01T02:42:50.370Z,99477.34
2018-05-01T02:45:18.274Z,99470.86
2018-05-01T02:47:46.316Z,99469.73
2018-05-01T02:50:13.907Z,99470.22
2018-05-01T02:52:41.513Z,99470.43
2018-05-01T02:55:09.189Z,99463.52
2018-05-01T02:57:36.806Z,99457.98
2018-05-01T03:00:04.459Z,99459.60
2018-05-01T03:02:32.438Z,99468.95
2018-05-01T03:05:00.330Z,99462.58
2018-05-01T03:07:27.910Z,99465.56
2018-05-01T03:09:55.838Z,99469.56
2018-05-01T03:12:23.471Z,99471.00
2018-05-01T03:14:51.424Z,99460.02
2018-05-01T03:17:19.393Z,99464.94
2018-05-01T03:19:47.288Z,99474.28
2018-05-01T03:22:15.561Z,99477.45
2018-05-01T03:24:43.884Z,99480.52
2018-05-01T03:27:11.495Z,99477.64
2018-05-01T03:29:39.399Z,99486.66
2018-05-01T03:32:07.614Z,99494.25
2018-05-01T03:34:35.230Z,99490.98
2018-05-01T03:37:02.880Z,99494.41
2018-05-01T03:39:30.528Z,99499.10
2018-05-01T03:41:58.148Z,99505.89
2018-05-01T03:44:27.807Z,99517.11
2018-05-01T03:46:57.462Z,99523.58
2018-05-01T03:49:26.722Z,99528.91
2018-05-01T03:51:56.310Z,99530.30
2018-05-01T03:54:23.964Z,99526.66
2018-05-01T03:56:51.584Z,99537.94
2018-05-01T03:59:19.461Z,99536.06
2018-05-01T04:01:47.450Z,99539.83
2018-05-01T04:04:16.782Z,99545.03
2018-05-01T04:06:44.525Z,99544.11
2018-05-01T04:09:12.610Z,99554.61
2018-05-01T04:11:40.480Z,99556.25
2018-05-01T04:14:08.370Z,99571.14
2018-05-01T04:16:36.036Z,99568.37
2018-05-01T04:19:03.645Z,99565.31
2018-05-01T04:21:31.501Z,99562.85
2018-05-01T04:24:00.401Z,99566.54
2018-05-01T04:26:28.310Z,99572.38
2018-05-01T04:28:55.916Z,99581.50
2018-05-01T04:31:23.864Z,99596.31
2018-05-01T04:33:52.078Z,99600.05
2018-05-01T04:36:19.705Z,99602.93
2018-05-01T04:38:47.515Z,99603.25
2018-05-01T04:41:15.396Z,99603.81
2018-05-01T04:43:43.312Z,99604.41
2018-05-01T04:46:10.997Z,99596.83
2018-05-01T04:48:38.600Z,99595.31
2018-05-01T04:51:06.457Z,99580.64
2018-05-01T04:53:34.419Z,99577.45
2018-05-01T04:56:02.316Z,99569.97
2018-05-01T04:58:29.991Z,99565.16
2018-05-01T05:00:57.816Z,99559.61
2018-05-01T05:03:25.520Z,99560.42
2018-05-01T05:05:53.378Z,99558.70
2018-05-01T05:08:21.056Z,99564.17
2018-05-01T05:10:48.676Z,99567.61
2018-05-01T05:13:16.402Z,99575.64
2018-05-01T05:15:44.199Z,99579.98
2018-05-01T05:18:11.811Z,99590.28
2018-05-01T05:20:39.479Z,99594.67
2018-05-01T05:23:07.438Z,99596.05
2018-05-01T05:25:35.178Z,99600.05
2018-05-01T05:28:02.809Z,99597.63
2018-05-01T05:30:30.504Z,99593.41
2018-05-01T05:32:58.478Z,99593.16
2018-05-01T05:35:26.463Z,99588.37
2018-05-01T05:37:54.366Z,99580.31
2018-05-01T05:40:22.265Z,99586.09
2018-05-01T05:42:49.806Z,99577.92
2018-05-01T05:45:17.430Z,99585.95
2018-05-01T05:47:45.030Z,99588.89
2018-05-01T05:50:13.214Z,99585.28
2018-05-01T05:52:42.416Z,99582.39
2018-05-01T05:55:11.806Z,99589.73
2018-05-01T05:57:41.117Z,99579.67
2018-05-01T06:00:10.012Z,99579.73
2018-05-01T06:02:37.614Z,99577.50
2018-05-01T06:05:05.799Z,99567.64
2018-05-01T06:07:33.508Z,99576.12
2018-05-01T06:10:01.452Z,99571.48
2018-05-01T06:12:29.725Z,99562.32
2018-05-01T06:14:58.479Z,99552.94
2018-05-01T06:17:26.357Z,99551.17
2018-05-01T06:19:54.029Z,99544.91
2018-05-01T06:22:21.662Z,99544.39
2018-05-01T06:24:49.959Z,99544.01
2018-05-01T06:27:17.549Z,99547.92
2018-05-01T06:29:46.346Z,99547.60
2018-05-01T06:32:14.393Z,99544.82
2018-05-01T06:34:42.294Z,99548.11
2018-05-01T06:37:09.907Z,99548.53
2018-05-01T06:39:37.578Z,99549.52
2018-05-01T06:42:05.495Z,99540.41
2018-05-01T06:44:33.423Z,99546.55
2018-05-01T06:47:01.349Z,99546.27
2018-05-01T06:49:28.962Z,99552.71
2018-05-01T06:51:56.589Z,99551.70
2018-05-01T06:54:24.279Z,99526.85
2018-05-01T06:56:51.873Z,99555.09
2018-05-01T06:59:19.533Z,99553.73
2018-05-01T07:01:47.527Z,99546.42
2018-05-01T07:04:15.460Z,99550.30
2018-05-01T07:06:43.768Z,99548.95
2018-05-01T07:09:11.422Z,99550.87
2018-05-01T07:11:39.303Z,99549.94
2018-05-01T07:14:07.620Z,99559.11
2018-05-01T07:16:35.440Z,99559.84
2018-05-01T07:19:03.334Z,99565.00
2018-05-01T07:21:31.287Z,99568.08
2018-05-01T07:23:58.914Z,99569.13
2018-05-01T07:26:26.530Z,99572.59
2018-05-01T07:28:54.447Z,99579.27
2018-05-01T07:31:22.338Z,99576.95
2018-05-01T07:33:50.266Z,99577.81
2018-05-01T07:36:17.937Z,99579.02
2018-05-01T07:38:45.549Z,99583.92
2018-05-01T07:41:13.895Z,99582.65
2018-05-01T07:43:41.536Z,99593.75
2018-05-01T07:46:09.720Z,99586.45
2018-05-01T07:48:37.337Z,99590.81
2018-05-01T07:51:04.926Z,99597.59
2018-05-01T07:53:33.174Z,99606.34
2018-05-01T07:56:00.787Z,99606.17
2018-05-01T07:58:29.323Z,99615.13
2018-05-01T08:00:58.541Z,99627.34
2018-05-01T08:03:27.914Z,99631.30
2018-05-01T08:05:57.325Z,99619.66
2018-05-01T08:08:25.021Z,99621.16
2018-05-01T08:10:52.662Z,99626.35
2018-05-01T08:13:20.487Z,99626.83
2018-05-01T08:15:48.486Z,99631.91
2018-05-01T08:18:16.370Z,99624.91
2018-05-01T08:20:43.975Z,99619.67
2018-05-01T08:23:11.875Z,99611.64
2018-05-01T08:25:39.503Z,99613.26
2018-05-01T08:28:07.395Z,99609.33
2018-05-01T08:30:34.889Z,99611.98
2018-05-01T08:33:02.829Z,99598.27
2018-05-01T08:35:30.461Z,99599.44
2018-05-01T08:37:58.411Z,99595.22
2018-05-01T08:40:26.326Z,99596.23
2018-05-01T08:42:54.355Z,99599.63
2018-05-01T08:45:22.266Z,99605.30
2018-05-01T08:47:50.410Z,99609.48
2018-05-01T08:50:18.303Z,99609.72
2018-05-01T08:52:45.977Z,99620.11
2018-05-01T08:55:13.588Z,99615.61
2018-05-01T08:57:41.510Z,99616.79
2018-05-01T09:00:09.464Z,99623.62
2018-05-01T09:02:37.390Z,99630.75
2018-05-01T09:05:05.652Z,99635.02
2018-05-01T09:07:33.914Z,99626.47
2018-05-01T09:10:01.528Z,99631.35
2018-05-01T09:12:29.523Z,99633.61
2018-05-01T09:14:57.469Z,99634.52
2018-05-01T09:17:25.382Z,99636.13
2018-05-01T09:19:53.118Z,99637.62
2018-05-01T09:22:20.743Z,99630.20
2018-05-01T09:24:48.483Z,99631.20
2018-05-01T09:27:16.452Z,99633.32
2018-05-01T09:29:44.392Z,99634.98
2018-05-01T09:32:12.023Z,99638.62
2018-05-01T09:34:39.966Z,99638.27
2018-05-01T09:37:07.411Z,99641.46
2018-05-01T09:39:35.319Z,99629.65
2018-05-01T09:42:03.273Z,99620.87
2018-05-01T09:44:30.871Z,99622.77
2018-05-01T09:46:58.470Z,99624.47
2018-05-01T09:49:26.422Z,99619.55
2018-05-01T09:51:54.674Z,99621.05
2018-05-01T09:54:23.777Z,99626.00
2018-05-01T09:56:52.805Z,99616.84
2018-05-01T09:59:21.771Z,99628.41
2018-05-01T10:01:50.858Z,99629.16
2018-05-01T10:04:20.885Z,99632.45
2018-05-01T10:06:50.146Z,99635.84
2018-05-01T10:09:19.834Z,99645.51
2018-05-01T10:11:50.269Z,99642.68
2018-05-01T10:14:21.572Z,99649.27
2018-05-01T10:16:52.257Z,99644.66
2018-05-01T10:19:23.185Z,99644.84
2018-05-01T10:21:54.283Z,99648.09
2018-05-01T10:24:25.351Z,99637.95
2018-05-01T10:26:56.275Z,99637.78
2018-05-01T10:29:27.173Z,99655.41
2018-05-01T10:31:57.934Z,99658.61
2018-05-01T10:34:28.543Z,99653.69
2018-05-01T10:36:58.542Z,99646.98
2018-05-01T10:39:29.241Z,99654.31
2018-05-01T10:42:00.225Z,99650.02
2018-05-01T10:44:31.233Z,99662.29
2018-05-01T10:47:02.290Z,99658.49
2018-05-01T10:49:33.242Z,99657.22
2018-05-01T10:52:04.424Z,99653.26
2018-05-01T10:54:35.263Z,99663.19
2018-05-01T10:57:05.853Z,99664.60
2018-05-01T10:59:36.632Z,99672.25
2018-05-01T11:02:07.351Z,99666.48
2018-05-01T11:04:38.394Z,99663.96
2018-05-01T11:07:10.087Z,99669.70
2018-05-01T11:09:40.419Z,99664.38
2018-05-01T11:12:10.571Z,99655.90
2018-05-01T11:14:41.270Z,99663.91
2018-05-01T11:17:12.416Z,99664.12
2018-05-01T11:19:43.189Z,99671.00
2018-05-01T11:22:14.479Z,99676.36
2018-05-01T11:24:45.262Z,99685.48
2018-05-01T11:27:16.366Z,99680.52
2018-05-01T11:29:47.150Z,99675.09
2018-05-01T11:32:17.766Z,99676.16
2018-05-01T11:34:48.466Z,99670.60
2018-05-01T11:37:19.633Z,99668.50
2018-05-01T11:39:50.295Z,99670.26
2018-05-01T11:42:20.840Z,99673.02
2018-05-01T11:44:51.633Z,99672.50
2018-05-01T11:47:22.744Z,99668.20
2018-05-01T11:49:53.526Z,99668.28
2018-05-01T11:52:24.389Z,99668.01
2018-05-01T11:54:54.450Z,99669.30
2018-05-01T11:57:25.243Z,99670.40
2018-05-01T11:59:56.129Z,99670.74
2018-05-01T12:02:27.257Z,99663.09
2018-05-01T12:04:58.155Z,99661.15
2018-05-01T12:07:29.509Z,99666.64
2018-05-01T12:10:00.215Z,99667.73
2018-05-01T12:12:31.181Z,99668.88
2018-05-01T12:15:01.759Z,99668.94
2018-05-01T12:17:33.443Z,99653.89
2018-05-01T12:20:03.918Z,99664.84
2018-05-01T12:22:35.446Z,99675.94
2018-05-01T12:25:07.201Z,99674.80
2018-05-01T12:27:37.845Z,99665.53
2018-05-01T12:30:08.519Z,99669.38
2018-05-01T12:32:39.316Z,99670.62
2018-05-01T12:35:09.824Z,99673.15
2018-05-01T12:37:40.528Z,99676.21
2018-05-01T12:40:11.462Z,99671.89
2018-05-01T12:42:42.589Z,99677.11
2018-05-01T12:45:14.188Z,99672.67
2018-05-01T12:47:44.763Z,99667.50
2018-05-01T12:50:15.424Z,99674.44
2018-05-01T12:52:46.288Z,99670.32
2018-05-01T12:55:17.254Z,99675.70
2018-05-01T12:57:48.260Z,99682.29
2018-05-01T13:00:19.163Z,99688.77
2018-05-01T13:02:50.272Z,99688.42
2018-05-01T13:05:21.140Z,99684.89
2018-05-01T13:07:52.554Z,99684.67
2018-05-01T13:10:23.314Z,99680.85
2018-05-01T13:12:54.459Z,99680.84
2018-05-01T13:15:24.591Z,99671.57
2018-05-01T13:17:55.363Z,99662.84
2018-05-01T13:20:26.184Z,99671.02
2018-05-01T13:22:58.929Z,99662.33
2018-05-01T13:25:28.808Z,99670.70
2018-05-01T13:27:58.932Z,99667.87
2018-05-01T13:30:29.890Z,99667.61
2018-05-01T13:33:00.867Z,99667.31
2018-05-01T13:35:31.543Z,99671.17
2018-05-01T13:38:02.351Z,99679.30
2018-05-01T13:40:33.419Z,99672.36
2018-05-01T13:43:03.954Z,99681.34
2018-05-01T13:45:35.599Z,99692.61
2018-05-01T13:48:06.680Z,99679.39
2018-05-01T13:50:36.622Z,99686.17
2018-05-01T13:53:07.489Z,99686.98
2018-05-01T13:55:38.220Z,99679.94
2018-05-01T13:58:09.247Z,99692.78
2018-05-01T14:00:40.689Z,99693.38
2018-05-01T14:03:11.774Z,99695.29
2018-05-01T14:05:42.456Z,99700.53
2018-05-01T14:08:13.375Z,99697.38
2018-05-01T14:10:44.175Z,99705.50
2018-05-01T14:13:15.270Z,99701.02
2018-05-01T14:15:46.278Z,99711.58
2018-05-01T14:18:17.904Z,99713.82
2018-05-01T14:20:48.983Z,99708.53
2018-05-01T14:23:21.457Z,99700.59
2018-05-01T14:25:50.770Z,99719.56
2018-05-01T14:28:20.698Z,99721.91
2018-05-01T14:30:51.477Z,99720.17
2018-05-01T14:33:21.453Z,99722.20
2018-05-01T14:35:52.308Z,99728.98
2018-05-01T14:38:23.708Z,99728.74
2018-05-01T14:40:55.986Z,99727.66
2018-05-01T14:43:25.854Z,99718.78
2018-05-01T14:45:56.652Z,99725.56
2018-05-01T14:48:27.373Z,99731.19
2018-05-01T14:50:58.279Z,99734.24
2018-05-01T14:53:29.232Z,99730.17
2018-05-01T14:56:00.418Z,99726.95
2018-05-01T14:58:31.214Z,99715.48
2018-05-01T15:01:02.294Z,99722.67
2018-05-01T15:03:33.179Z,99733.44
2018-05-01T15:06:04.233Z,99732.95
2018-05-01T15:08:35.200Z,99731.11
2018-05-01T15:11:06.207Z,99735.95
2018-05-01T15:13:37.229Z,99735.11
2018-05-01T15:16:08.441Z,99735.34
2018-05-01T15:18:39.140Z,99734.00
2018-05-01T15:21:10.439Z,99728.06
2018-05-01T15:23:41.146Z,99729.05
2018-05-01T15:26:12.223Z,99725.63
2018-05-01T15:28:42.920Z,99728.39
2018-05-01T15:31:13.302Z,99726.77
2018-05-01T15:33:45.150Z,99730.33
2018-05-01T15:36:16.312Z,99734.02
2018-05-01T15:38:47.442Z,99737.02
2018-05-01T15:41:18.259Z,99729.27
2018-05-01T15:43:49.266Z,99722.42
2018-05-01T15:46:20.310Z,99730.07
2018-05-01T15:48:51.226Z,99732.28
2018-05-01T15:51:22.226Z,99725.86
2018-05-01T15:53:53.189Z,99726.48
2018-05-01T15:56:24.178Z,99720.57
2018-05-01T15:58:55.186Z,99723.12
2018-05-01T16:01:26.233Z,99719.41
2018-05-01T16:03:57.246Z,99717.97
2018-05-01T16:06:28.306Z,99712.76
2018-05-01T16:08:59.127Z,99714.50
2018-05-01T16:11:30.279Z,99716.08
2018-05-01T16:14:01.187Z,99715.95
2018-05-01T16:16:32.236Z,99715.59
2018-05-01T16:19:03.144Z,99708.12
2018-05-01T16:21:34.516Z,99706.98
2018-05-01T16:24:05.405Z,99705.59
2018-05-01T16:26:36.253Z,99701.91
2018-05-01T16:29:07.200Z,99695.92
2018-05-01T16:31:38.030Z,99690.86
2018-05-01T16:34:09.033Z,99696.91
2018-05-01T16:36:39.755Z,99695.25
2018-05-01T16:39:10.445Z,99701.65
2018-05-01T16:41:41.254Z,99700.65
2018-05-01T16:44:12.203Z,99690.16
2018-05-01T16:46:43.468Z,99693.90
2018-05-01T16:49:14.252Z,99702.97
2018-05-01T16:51:45.191Z,99696.47
2018-05-01T16:54:15.752Z,99690.65
2018-05-01T16:56:46.457Z,99696.31
2018-05-01T16:59:17.357Z,99702.70
2018-05-01T17:01:48.269Z,99700.84
2018-05-01T17:04:19.186Z,99709.67
2018-05-01T17:06:50.292Z,99710.00
2018-05-01T17:09:21.074Z,99703.39
2018-05-01T17:11:52.250Z,99716.20
2018-05-01T17:14:23.112Z,99717.58
2018-05-01T17:16:54.241Z,99721.33
2018-05-01T17:19:24.770Z,99718.16
2018-05-01T17:21:55.627Z,99718.39
2018-05-01T17:24:26.382Z,99722.73
2018-05-01T17:26:57.144Z,99727.71
2018-05-01T17:29:28.218Z,99728.36
2018-05-01T17:31:59.931Z,99724.45
2018-05-01T17:34:30.720Z,99723.20
2018-05-01T17:37:01.457Z,99731.12
2018-05-01T17:39:32.270Z,99733.08
2018-05-01T17:42:03.899Z,99723.34
2018-05-01T17:44:34.681Z,99743.05
2018-05-01T17:47:05.508Z,99745.22
2018-05-01T17:49:36.293Z,99753.11
2018-05-01T17:52:07.327Z,99759.61
2018-05-01T17:54:38.329Z,99762.20
2018-05-01T18:00:00.871Z,99774.69
2018-05-01T18:02:29.870Z,99781.13
2018-05-01T18:04:58.882Z,99782.66
2018-05-01T18:07:27.977Z,99790.16
2018-05-01T18:09:57.256Z,99792.61
2018-05-01T18:12:26.233Z,99797.01
2018-05-01T18:14:56.001Z,99801.30
2018-05-01T18:17:25.554Z,99806.95
2018-05-01T18:19:54.555Z,99811.70
2018-05-01T18:22:23.585Z,99816.83
2018-05-01T18:24:52.555Z,99804.68
2018-05-01T18:27:21.538Z,99805.27
2018-05-01T18:29:50.546Z,99812.48
2018-05-01T18:32:20.632Z,99818.79
2018-05-01T18:34:51.321Z,99826.05
2018-05-01T18:37:21.985Z,99823.97
2018-05-01T18:39:52.698Z,99826.19
2018-05-01T18:42:23.410Z,99826.59
2018-05-01T18:44:54.495Z,99830.79
2018-05-01T18:47:25.996Z,99831.27
2018-05-01T18:49:55.806Z,99836.22
2018-05-01T18:52:28.269Z,99846.63
2018-05-01T18:54:57.911Z,99859.53
2018-05-01T18:57:28.473Z,99855.22
2018-05-01T18:59:59.271Z,99865.84
2018-05-01T19:02:30.157Z,99867.30
2018-05-01T19:05:01.364Z,99862.19
2018-05-01T19:07:32.322Z,99863.53
2018-05-01T19:10:11.934Z,99869.94
2018-05-01T19:12:41.426Z,99870.87
2018-05-01T19:15:10.879Z,99878.85
2018-05-01T19:17:41.244Z,99886.75
2018-05-01T19:20:10.114Z,99888.72
2018-05-01T19:22:39.871Z,99905.26
2018-05-01T19:25:10.823Z,99909.88
2018-05-01T19:27:41.146Z,99908.08
2018-05-01T19:30:12.230Z,99901.48
2018-05-01T19:32:44.931Z,99903.06
2018-05-01T19:35:14.339Z,99908.52
2018-05-01T19:37:44.971Z,99910.20
2018-05-01T19:40:16.025Z,99904.74
2018-05-01T19:42:47.115Z,99912.16
2018-05-01T19:45:18.797Z,99909.20
2018-05-01T19:47:49.046Z,99927.61
2018-05-01T19:50:20.211Z,99929.70
2018-05-01T19:52:51.130Z,99941.11
2018-05-01T19:55:21.969Z,99935.42
2018-05-01T19:57:52.335Z,99947.61
2018-05-01T20:00:23.900Z,99954.16
2018-05-01T20:02:54.876Z,99945.05
2018-05-01T20:05:25.562Z,99943.75
2018-05-01T20:07:55.445Z,99947.80
2018-05-01T20:10:27.652Z,99946.91
2018-05-01T20:12:56.868Z,99951.98
2018-05-01T20:15:28.015Z,99954.48
2018-05-01T20:17:59.201Z,99956.88
2018-05-01T20:20:30.535Z,99957.84
2018-05-01T20:23:01.572Z,99963.53
2018-05-01T20:25:32.584Z,99965.55
2018-05-01T20:28:03.277Z,99969.91
2018-05-01T20:30:34.606Z,99972.41
2018-05-01T20:33:05.152Z,99972.00
2018-05-01T20:35:35.883Z,99969.51
2018-05-01T20:38:06.890Z,99979.45
2018-05-01T20:40:38.007Z,99965.14
2018-05-01T20:43:08.976Z,99970.38
2018-05-01T20:45:40.528Z,99978.56
2018-05-01T20:48:11.540Z,99982.67
2018-05-01T20:50:41.122Z,99987.50
2018-05-01T20:53:12.223Z,99993.58
2018-05-01T20:55:43.821Z,99996.27
2018-05-01T20:58:14.381Z,99984.78
2018-05-01T21:00:44.091Z,99998.49
2018-05-01T21:03:15.071Z,100009.00
2018-05-01T21:05:46.196Z,99998.88
2018-05-01T21:08:15.320Z,100009.16
2018-05-01T21:10:46.333Z,100015.31
2018-05-01T21:13:16.958Z,100021.61
2018-05-01T21:15:47.869Z,100018.14
2018-05-01T21:18:19.266Z,100025.81
2018-05-01T21:20:50.005Z,100032.09
2018-05-01T21:23:21.305Z,100029.41
2018-05-01T21:25:52.344Z,100027.45
2018-05-01T21:28:23.396Z,100039.05
2018-05-01T21:30:54.241Z,100055.67
2018-05-01T21:33:25.375Z,100065.56
2018-05-01T21:35:56.430Z,100074.14
2018-05-01T21:38:27.406Z,100074.04
2018-05-01T21:40:58.078Z,100080.83
2018-05-01T21:43:29.687Z,100080.55
2018-05-01T21:46:01.012Z,100075.48
2018-05-01T21:48:31.805Z,100077.14
2018-05-01T21:51:01.764Z,100079.58
2018-05-01T21:53:32.534Z,100077.78
2018-05-01T21:56:03.234Z,100080.22
2018-05-01T21:58:34.436Z,100084.73
2018-05-01T22:01:05.163Z,100088.08
2018-05-01T22:03:35.836Z,100086.96
2018-05-01T22:06:06.522Z,100092.18
2018-05-01T22:08:37.230Z,100092.63
2018-05-01T22:11:08.167Z,100093.23
2018-05-01T22:13:39.177Z,100098.81
2018-05-01T22:16:10.198Z,100105.37
2018-05-01T22:18:41.157Z,100100.25
2018-05-01T22:21:12.146Z,100092.19
2018-05-01T22:23:43.245Z,100101.05
2018-05-01T22:26:14.133Z,100098.17
2018-05-01T22:28:45.273Z,100099.88
2018-05-01T22:31:16.130Z,100095.52
2018-05-01T22:33:46.782Z,100102.53
2018-05-01T22:36:17.290Z,100106.80
2018-05-01T22:38:48.313Z,100113.98
2018-05-01T22:41:18.704Z,100118.20
2018-05-01T22:43:49.443Z,100111.63
2018-05-01T22:46:20.126Z,100113.62
2018-05-01T22:48:51.195Z,100109.21
2018-05-01T22:51:22.414Z,100113.44
2018-05-01T22:53:53.207Z,100120.33
2018-05-01T22:56:24.206Z,100121.34
2018-05-01T22:58:55.200Z,100124.46
2018-05-01T23:01:26.519Z,100123.11
2018-05-01T23:03:57.233Z,100122.44
2018-05-01T23:06:28.079Z,100123.28
2018-05-01T23:08:59.165Z,100119.20
2018-05-01T23:11:30.130Z,100121.52
2018-05-01T23:14:01.055Z,100133.42
2018-05-01T23:16:31.653Z,100144.38
2018-05-01T23:19:02.374Z,100144.91
2018-05-01T23:21:33.205Z,100154.42
2018-05-01T23:24:03.738Z,100154.22
2018-05-01T23:26:34.370Z,100155.97
2018-05-01T23:29:05.177Z,100158.70
2018-05-01T23:31:35.816Z,100164.93
2018-05-01T23:34:06.253Z,100172.20
2018-05-01T23:36:37.105Z,100180.78
2018-05-01T23:39:08.481Z,100187.63
2018-05-01T23:41:39.225Z,100184.59
2018-05-01T23:44:10.222Z,100183.42
2018-05-01T23:46:41.167Z,100190.31
2018-05-01T23:49:11.990Z,100203.20
2018-05-01T23:51:42.654Z,100215.38
2018-05-01T23:54:12.583Z,100225.61
2018-05-01T23:56:43.211Z,100222.63
2018-05-01T23:59:14.193Z,100225.03
